Time;durP1;ratioP1;P1;durP2;ratioP2;P2;SDS_P1;SDS_P2;PMS_P1;PMS_P2;Temp;Humidity;BMP_temperature;BMP_pressure;BME280_temperature;BME280_humidity;BME280_pressure;Samples;Min_cycle;Max_cycle;Signal;HPM_P1;HPM_P2
2022/07/10 00:01:07;;;;;;;5.20;1.67;;;;;;;14.92;100.00;99590.00;6241858;23;20019;-96
2022/07/10 00:03:33;;;;;;;4.90;1.45;;;;;;;14.99;100.00;99586.44;6240739;23;20012;-96
2022/07/10 00:06:09;;;;;;;7.07;1.55;;;;;;;15.09;100.00;99595.91;6237605;23;20008;-96
2022/07/10 00:08:42;;;;;;;6.38;1.67;;;;;;;15.03;100.00;99582.88;6235454;23;20004;-96
2022/07/10 00:11:17;;;;;;;6.07;1.50;;;;;;;15.19;100.00;99588.78;6232968;23;20005;-96
2022/07/10 00:13:45;;;;;;;6.60;1.80;;;;;;;15.21;100.00;99580.88;6234907;23;20009;-96
2022/07/10 00:16:12;;;;;;;12.32;1.52;;;;;;;15.17;100.00;99591.44;6235592;23;20095;-96
2022/07/10 00:19:05;;;;;;;12.02;2.30;;;;;;;15.27;100.00;99592.16;6236064;23;20008;-96
2022/07/10 00:21:40;;;;;;;8.90;1.80;;;;;;;15.05;100.00;99577.59;6237935;23;20011;-96
2022/07/10 00:24:12;;;;;;;6.60;1.70;;;;;;;14.93;100.00;99576.00;6238048;23;20020;-96
2022/07/10 00:26:38;;;;;;;7.88;1.75;;;;;;;14.87;100.00;99573.47;6230127;23;20019;-96
2022/07/10 00:29:04;;;;;;;7.00;1.73;;;;;;;14.84;100.00;99572.59;6223828;23;20091;-96
2022/07/10 00:31:30;;;;;;;7.65;1.58;;;;;;;14.74;100.00;99567.47;6225114;23;20063;-96
2022/07/10 00:33:56;;;;;;;5.30;1.52;;;;;;;14.76;100.00;99569.22;6226334;23;20322;-96
2022/07/10 00:36:23;;;;;;;6.10;1.70;;;;;;;14.56;100.00;99561.56;6225514;23;20016;-96
2022/07/10 00:38:48;;;;;;;5.38;1.75;;;;;;;14.41;100.00;99572.25;6226702;23;20015;-96
2022/07/10 00:41:15;;;;;;;6.43;1.92;;;;;;;14.55;100.00;99570.31;6225262;23;20020;-96
2022/07/10 00:44:00;;;;;;;6.50;2.00;;;;;;;14.36;100.00;99558.31;6224078;23;20012;-96
2022/07/10 00:46:31;;;;;;;5.70;1.70;;;;;;;14.40;100.00;99560.00;6228093;23;20016;-96
2022/07/10 00:49:00;;;;;;;6.43;1.40;;;;;;;14.47;100.00;99551.16;6227020;23;20031;-96
2022/07/10 00:51:28;;;;;;;6.78;1.50;;;;;;;14.42;100.00;99548.63;6239313;23;19988;-96
2022/07/10 00:53:56;;;;;;;7.65;1.50;;;;;;;14.39;100.00;99537.28;6240327;23;19996;-96
2022/07/10 00:56:28;;;;;;;8.23;2.10;;;;;;;14.54;100.00;99538.84;6241247;23;20007;-96
2022/07/10 00:58:54;;;;;;;5.88;1.80;;;;;;;14.51;100.00;99542.38;6239765;23;20020;-96
2022/07/10 01:01:22;;;;;;;5.20;1.40;;;;;;;14.56;100.00;99540.56;6239128;23;20004;-96
2022/07/10 01:03:48;;;;;;;7.13;1.52;;;;;;;14.56;100.00;99539.69;6239019;23;20012;-96
2022/07/10 01:06:19;;;;;;;4.75;1.48;;;;;;;14.52;100.00;99529.22;6238784;23;19989;-96
2022/07/10 01:08:51;;;;;;;6.60;1.70;;;;;;;14.59;100.00;99540.53;6241566;23;20000;-96
2022/07/10 01:11:41;;;;;;;5.67;1.63;;;;;;;14.51;100.00;99539.75;6217144;23;19992;-96
2022/07/10 01:14:09;;;;;;;6.10;1.60;;;;;;;14.43;100.00;99533.72;6232051;23;20008;-96
2022/07/10 01:16:34;;;;;;;6.95;1.70;;;;;;;14.49;100.00;99528.41;6224311;23;20013;-96
2022/07/10 01:19:00;;;;;;;6.93;1.50;;;;;;;14.47;100.00;99531.06;6227197;23;20031;-96
2022/07/10 01:21:34;;;;;;;6.78;1.75;;;;;;;14.41;100.00;99531.13;6229669;23;19997;-96
2022/07/10 01:24:10;;;;;;;5.88;1.75;;;;;;;14.39;100.00;99538.16;6230720;23;20016;-96
2022/07/10 01:26:37;;;;;;;8.45;1.90;;;;;;;14.28;100.00;99522.53;6236466;23;19996;-96
2022/07/10 01:29:11;;;;;;;5.32;1.67;;;;;;;14.22;100.00;99524.34;6232732;23;20012;-96
2022/07/10 01:31:39;;;;;;;6.50;1.90;;;;;;;14.23;100.00;99521.72;6230517;23;20012;-96
2022/07/10 01:34:09;;;;;;;7.10;1.63;;;;;;;14.29;100.00;99531.25;6228784;23;20012;-96
2022/07/10 01:36:47;;;;;;;5.15;1.67;;;;;;;14.30;100.00;99514.66;6228100;23;20046;-96
2022/07/10 01:39:17;;;;;;;7.03;1.55;;;;;;;14.41;100.00;99532.88;6229507;23;20091;-96
2022/07/10 01:41:43;;;;;;;5.45;1.80;;;;;;;14.33;100.00;99522.47;6227297;23;20095;-96
2022/07/10 01:44:09;;;;;;;5.43;1.67;;;;;;;14.13;100.00;99520.94;6226767;23;20008;-96
2022/07/10 01:46:35;;;;;;;5.50;1.67;;;;;;;14.24;100.00;99523.47;6225955;23;20023;-96
2022/07/10 01:49:00;;;;;;;5.32;1.77;;;;;;;14.36;100.00;99522.44;6224645;23;20016;-96
2022/07/10 01:51:26;;;;;;;4.63;1.42;;;;;;;14.24;100.00;99512.09;6225773;23;20007;-96
2022/07/10 01:53:53;;;;;;;6.80;2.00;;;;;;;14.20;100.00;99513.88;6226665;23;20015;-96
2022/07/10 01:56:19;;;;;;;6.13;1.60;;;;;;;14.20;100.00;99513.88;6227447;23;20005;-96
2022/07/10 01:58:49;;;;;;;5.45;1.35;;;;;;;14.32;100.00;99505.88;6226562;23;20011;-96
2022/07/10 02:01:17;;;;;;;5.32;1.50;;;;;;;14.36;100.00;99513.69;6226053;23;20016;-96
2022/07/10 02:06:30;;;;;;;5.82;1.60;;;;;;;14.47;100.00;99507.44;6226672;23;20063;-96
2022/07/10 02:08:56;;;;;;;5.25;1.38;;;;;;;14.19;100.00;99504.28;6223252;23;20000;-96
2022/07/10 02:11:21;;;;;;;5.43;1.40;;;;;;;14.20;100.00;99508.63;6224301;23;20088;-96
2022/07/10 02:13:47;;;;;;;4.88;1.30;;;;;;;14.05;100.00;99507.06;6224565;23;20015;-96
2022/07/10 02:16:15;;;;;;;5.85;1.63;;;;;;;14.00;100.00;99504.50;6223281;23;20001;-96
2022/07/10 02:18:41;;;;;;;5.80;1.73;;;;;;;13.86;100.00;99511.63;6222693;23;20024;-96
2022/07/10 02:21:07;;;;;;;5.43;1.45;;;;;;;13.71;100.00;99517.91;6220309;23;20023;-96
2022/07/10 02:23:43;;;;;;;6.05;1.60;;;;;;;13.73;100.00;99510.03;6221160;23;20070;-96
2022/07/10 02:26:10;;;;;;;6.28;1.70;;;;;;;13.69;100.00;99505.69;6222480;23;20019;-96
2022/07/10 02:28:36;;;;;;;6.28;1.50;;;;;;;13.61;100.00;99500.50;6219852;23;20008;-96
2022/07/10 02:31:02;;;;;;;4.28;1.27;;;;;;;13.84;100.00;99510.78;6219913;23;20457;-96
2022/07/10 02:33:28;;;;;;;6.25;1.50;;;;;;;13.79;100.00;99500.34;6220554;23;20069;-96
2022/07/10 02:35:54;;;;;;;6.40;1.63;;;;;;;13.56;100.00;99487.47;6220626;23;20051;-96
2022/07/10 02:38:20;;;;;;;6.38;1.70;;;;;;;13.61;100.00;99479.53;6220460;23;20035;-96
2022/07/10 02:40:49;;;;;;;7.30;1.80;;;;;;;13.72;100.00;99487.31;6224022;23;20021;-96
2022/07/10 02:43:14;;;;;;;5.00;1.38;;;;;;;13.65;100.00;99487.38;6222156;23;20072;-96
2022/07/10 02:45:40;;;;;;;5.50;1.55;;;;;;;13.77;100.00;99488.13;6220847;23;20012;-96
2022/07/10 02:48:06;;;;;;;6.18;1.48;;;;;;;13.81;100.00;99487.22;6221348;23;20001;-96
2022/07/10 02:50:32;;;;;;;7.50;1.52;;;;;;;13.87;100.00;99487.13;6221742;23;20020;-96
2022/07/10 02:52:58;;;;;;;5.68;1.63;;;;;;;13.67;100.00;99482.13;6224350;23;20021;-96
2022/07/10 02:55:25;;;;;;;5.00;1.30;;;;;;;13.80;100.00;99477.59;6221128;23;20435;-96
2022/07/10 02:57:51;;;;;;;6.32;1.50;;;;;;;13.70;100.00;99484.69;6222721;23;20093;-96
2022/07/10 03:00:17;;;;;;;5.72;1.40;;;;;;;13.71;100.00;99490.81;6221074;23;20492;-96
2022/07/10 03:02:42;;;;;;;6.13;1.60;;;;;;;13.73;100.00;99489.91;6222477;23;20060;-96
2022/07/10 03:05:08;;;;;;;3.70;1.20;;;;;;;13.74;100.00;99485.56;6223560;23;20442;-96
2022/07/10 03:07:35;;;;;;;4.85;1.40;;;;;;;13.78;100.00;99487.25;6221895;23;20131;-96
2022/07/10 03:10:02;;;;;;;5.47;1.65;;;;;;;13.77;100.00;99483.75;6224640;23;20027;-96
2022/07/10 03:12:27;;;;;;;5.78;1.80;;;;;;;13.54;100.00;99484.00;6223785;23;20001;-96
2022/07/10 03:14:59;;;;;;;7.20;1.88;;;;;;;13.47;100.00;99477.06;6223899;23;20088;-96
2022/07/10 03:17:25;;;;;;;5.82;1.70;;;;;;;13.51;100.00;99481.38;6223741;23;20028;-96
2022/07/10 03:19:51;;;;;;;5.60;1.60;;;;;;;13.62;100.00;99479.53;6221612;23;20009;-96
2022/07/10 03:22:19;;;;;;;7.60;1.83;;;;;;;13.63;100.00;99480.41;6223526;23;20122;-96
2022/07/10 03:24:47;;;;;;;6.20;1.80;;;;;;;13.37;100.00;99485.88;6222221;23;20001;-96
2022/07/10 03:27:13;;;;;;;6.75;1.63;;;;;;;13.38;100.00;99485.88;6221788;23;20039;-95
2022/07/10 03:29:40;;;;;;;6.55;1.90;;;;;;;13.28;100.00;99471.09;6221072;23;20012;-96
2022/07/10 03:32:08;;;;;;;6.75;2.30;;;;;;;13.36;100.00;99474.56;6225131;23;20004;-96
2022/07/10 03:34:34;;;;;;;7.18;2.40;;;;;;;13.38;100.00;99469.28;6222568;23;20008;-96
2022/07/10 03:37:12;;;;;;;7.63;2.47;;;;;;;13.43;100.00;99467.47;6224057;23;20008;-96
2022/07/10 03:39:38;;;;;;;8.93;2.47;;;;;;;13.36;100.00;99473.66;6223737;23;20024;-96
2022/07/10 03:42:06;;;;;;;7.60;2.40;;;;;;;13.23;100.00;99465.88;6222452;23;20089;-96
2022/07/10 03:44:32;;;;;;;7.22;2.35;;;;;;;13.26;100.00;99471.13;6222849;23;20039;-96
2022/07/10 03:46:58;;;;;;;8.13;2.78;;;;;;;13.37;100.00;99454.44;6224110;23;20182;-96
2022/07/10 03:49:24;;;;;;;7.80;2.70;;;;;;;13.44;100.00;99462.25;6224589;23;20027;-96
2022/07/10 03:51:50;;;;;;;6.65;2.70;;;;;;;13.54;100.00;99467.38;6224572;23;20012;-96
2022/07/10 03:54:15;;;;;;;8.00;3.00;;;;;;;13.43;100.00;99457.00;6223496;23;20001;-96
2022/07/10 03:59:34;;;;;;;8.27;2.60;;;;;;;13.37;100.00;99460.53;6225528;23;20150;-96
2022/07/10 04:02:00;;;;;;;7.22;2.65;;;;;;;13.49;100.00;99468.28;6221758;23;20012;-96
2022/07/10 04:04:26;;;;;;;6.18;2.35;;;;;;;13.36;100.00;99456.22;6220897;23;20611;-96
2022/07/10 04:06:52;;;;;;;8.25;2.42;;;;;;;13.11;100.00;99460.72;6221983;23;20004;-96
2022/07/10 04:09:17;;;;;;;5.68;2.10;;;;;;;13.01;100.00;99457.31;6220791;23;20035;-96
2022/07/10 04:11:43;;;;;;;7.43;2.20;;;;;;;12.99;100.00;99456.47;6224680;23;20534;-96
2022/07/10 04:14:09;;;;;;;8.55;2.20;;;;;;;13.13;100.00;99452.00;6223522;23;20048;-96
2022/07/10 04:16:35;;;;;;;6.85;2.10;;;;;;;13.25;100.00;99444.91;6222160;23;20035;-96
2022/07/10 04:41:46;;;;;;;7.97;2.15;;;;;;;13.93;100.00;99442.50;6220447;23;20305;-96
2022/07/10 04:44:20;;;;;;;6.53;1.83;;;;;;;13.87;100.00;99433.84;6163494;23;20032;-96
2022/07/10 04:46:47;;;;;;;6.90;1.90;;;;;;;13.95;100.00;99437.25;6164759;23;20140;-96
2022/07/10 04:49:16;;;;;;;6.50;2.00;;;;;;;14.02;100.00;99440.66;6167556;23;20012;-96
2022/07/10 04:51:42;;;;;;;6.40;1.83;;;;;;;14.14;100.00;99432.63;6166907;23;20020;-96
2022/07/10 04:54:08;;;;;;;5.80;1.80;;;;;;;14.18;100.00;99434.31;6165953;23;20005;-96
2022/07/10 04:56:35;;;;;;;5.97;1.70;;;;;;;14.27;100.00;99428.09;6165425;23;20096;-96
2022/07/10 04:59:01;;;;;;;6.47;1.90;;;;;;;14.21;100.00;99430.78;6163963;23;20016;-96
2022/07/10 05:01:28;;;;;;;5.90;1.83;;;;;;;14.28;100.00;99435.97;6164122;23;20016;-96
2022/07/10 05:03:56;;;;;;;5.40;1.73;;;;;;;14.40;100.00;99436.66;6189424;23;20099;-96
2022/07/10 05:06:22;;;;;;;6.18;1.83;;;;;;;14.47;100.00;99427.81;6163566;23;20008;-96
2022/07/10 05:08:48;;;;;;;7.22;1.90;;;;;;;14.52;100.00;99424.25;6163771;23;20088;-96
2022/07/10 05:11:14;;;;;;;5.00;1.50;;;;;;;14.57;100.00;99425.94;6165815;23;20009;-96
2022/07/10 05:13:43;;;;;;;4.97;1.52;;;;;;;14.81;100.00;99424.75;6165030;23;20005;-96
2022/07/10 05:16:22;;;;;;;5.95;1.58;;;;;;;14.79;100.00;99416.00;6164556;23;20021;-96
2022/07/10 05:18:48;;;;;;;5.22;1.50;;;;;;;14.96;100.00;99421.88;6163019;23;20009;-96
2022/07/10 05:21:14;;;;;;;5.38;1.40;;;;;;;14.98;100.00;99417.44;6162539;23;20013;-96
2022/07/10 05:23:41;;;;;;;5.00;1.40;;;;;;;15.14;100.00;99425.06;6163590;23;20001;-96
2022/07/10 05:26:06;;;;;;;5.28;1.48;;;;;;;15.43;100.00;99416.66;6164163;23;20079;-96
2022/07/10 05:28:32;;;;;;;5.80;1.60;;;;;;;15.61;100.00;99418.09;6165490;23;20017;-96
2022/07/10 05:30:58;;;;;;;6.78;1.80;;;;;;;15.73;100.00;99422.25;6164237;23;20083;-96
2022/07/10 05:33:34;;;;;;;;;;;;;;;;;;;;;
2022/07/10 05:36:00;;;;;;;5.43;1.45;;;;;;;15.36;100.00;99418.56;6068552;23;20318;-96
2022/07/10 05:38:26;;;;;;;5.07;1.33;;;;;;;15.49;100.00;99413.06;6068715;23;20021;-96
2022/07/10 05:40:54;;;;;;;5.93;1.33;;;;;;;15.90;100.00;99415.84;6065393;23;20007;-96
2022/07/10 05:43:19;;;;;;;5.95;1.50;;;;;;;15.96;100.00;99421.81;6059411;23;20038;-96
2022/07/10 05:45:45;;;;;;;5.00;1.35;;;;;;;16.00;100.00;99426.13;6069205;23;20031;-96
2022/07/10 05:48:10;;;;;;;5.78;1.65;;;;;;;16.14;100.00;99417.06;6069350;23;20069;-96
2022/07/10 05:50:36;;;;;;;5.43;1.40;;;;;;;16.30;100.00;99422.91;5961945;23;20043;-96
2022/07/10 05:53:02;;;;;;;4.65;1.40;;;;;;;16.23;100.00;99424.78;6030239;23;20042;-96
2022/07/10 05:55:28;;;;;;;5.47;1.40;;;;;;;16.33;100.00;99426.31;6013385;23;20015;-96
2022/07/10 05:57:54;;;;;;;6.47;1.60;;;;;;;16.37;100.00;99421.84;6012473;23;20011;-96
2022/07/10 06:00:21;;;;;;;4.93;1.20;;;;;;;16.29;100.00;99416.75;6011602;23;20085;-96
2022/07/10 06:02:48;;;;;;;5.22;1.40;;;;;;;16.41;100.00;99415.63;6013089;23;20015;-96
2022/07/10 06:05:13;;;;;;;5.15;1.30;;;;;;;16.55;100.00;99433.75;6012430;23;20047;-95
2022/07/10 06:07:49;;;;;;;4.75;1.42;;;;;;;16.57;100.00;99421.41;6111515;23;20033;-96
2022/07/10 06:10:14;;;;;;;5.55;1.13;;;;;;;16.72;100.00;99431.56;6125854;23;20345;-96
2022/07/10 06:12:39;;;;;;;4.60;1.20;;;;;;;16.90;100.00;99413.63;6123532;23;20006;-96
2022/07/10 06:15:05;;;;;;;6.32;1.30;;;;;;;17.00;100.00;99417.75;6123282;23;20056;-96
2022/07/10 06:17:31;;;;;;;4.63;1.35;;;;;;;17.06;100.00;99420.28;6125240;23;20006;-96
2022/07/10 06:19:57;;;;;;;4.32;1.25;;;;;;;17.24;100.00;99423.31;6123873;23;20085;-96
2022/07/10 06:22:31;;;;;;;4.03;1.20;;;;;;;17.34;100.00;99421.31;6124469;23;20057;-96
2022/07/10 06:25:02;;;;;;;3.45;1.00;;;;;;;17.59;100.00;99424.16;6125284;23;20034;-96
2022/07/10 06:27:28;;;;;;;4.55;1.10;;;;;;;17.49;100.00;99435.88;6125037;23;20065;-96
2022/07/10 06:37:02;;;;;;;5.30;1.20;;;;;;;17.89;100.00;99437.44;6037483;23;20034;-94
2022/07/10 06:39:35;;;;;;;4.45;1.00;;;;;;;17.82;100.00;99430.59;6011365;23;20008;-96
2022/07/10 06:42:03;;;;;;;4.25;1.00;;;;;;;18.05;100.00;99435.22;6014626;23;20031;-96
2022/07/10 06:44:29;;;;;;;5.00;1.10;;;;;;;18.13;100.00;99441.16;6065458;23;20029;-96
2022/07/10 06:49:40;;;;;;;3.72;1.05;;;;;;;18.31;100.00;99442.41;6062961;23;20032;-96
2022/07/10 06:52:06;;;;;;;3.25;1.00;;;;;;;18.19;100.00;99440.13;6064899;23;20010;-96
2022/07/10 06:54:32;;;;;;;3.45;1.00;;;;;;;18.23;100.00;99436.47;6065601;23;20011;-96
2022/07/10 06:56:58;;;;;;;3.58;1.00;;;;;;;18.36;100.00;99437.84;6040005;23;20022;-96
2022/07/10 06:59:24;;;;;;;3.35;1.02;;;;;;;18.47;100.00;99440.16;6062988;23;20018;-95
2022/07/10 07:01:55;;;;;;;3.75;0.90;;;;;;;18.63;100.00;99437.91;6064457;23;20022;-96
2022/07/10 07:04:21;;;;;;;5.90;1.00;;;;;;;18.49;100.00;99430.41;6064763;23;20022;-96
2022/07/10 07:06:50;;;;;;;3.33;0.90;;;;;;;18.54;100.00;99430.28;6065930;23;20014;-95
2022/07/10 07:09:20;;;;;;;4.93;0.90;;;;;;;18.86;100.00;99436.31;6065784;23;20010;-96
2022/07/10 07:11:47;;;;;;;2.55;0.80;;;;;;;18.70;100.00;99443.88;6064804;23;20776;-95
2022/07/10 07:14:21;;;;;;;4.25;0.95;;;;;;;18.82;100.00;99442.63;6117675;23;20021;-95
2022/07/10 07:16:58;;;;;;;3.13;0.80;;;;;;;18.82;100.00;99430.28;6124683;23;20010;-96
2022/07/10 07:19:30;;;;;;;3.25;0.80;;;;;;;18.59;100.00;99434.50;6125783;23;20010;-95
2022/07/10 07:24:43;;;;;;;3.35;0.80;;;;;;;18.62;100.00;99438.81;6127498;23;19928;-94
2022/07/10 07:27:10;;;;;;;2.00;0.70;;;;;;;18.49;100.00;99433.06;6125094;23;20002;-95
2022/07/10 07:29:36;;;;;;;3.42;1.00;;;;;;;18.64;100.00;99436.16;6125430;23;20345;-96
2022/07/10 07:32:03;;;;;;;3.70;0.98;;;;;;;18.62;100.00;99430.03;6124768;23;20014;-95
2022/07/10 07:34:28;;;;;;;2.35;0.77;;;;;;;18.68;100.00;99428.06;6126674;23;20101;-96
2022/07/10 07:36:54;;;;;;;3.03;0.70;;;;;;;18.65;100.00;99432.56;6126098;23;20025;-96
2022/07/10 07:39:24;;;;;;;3.22;0.80;;;;;;;19.04;100.00;99424.31;6125863;23;20009;-95
2022/07/10 07:41:49;;;;;;;2.50;0.60;;;;;;;19.24;100.00;99435.09;6126025;23;20089;-95
2022/07/10 07:44:17;;;;;;;3.58;0.93;;;;;;;19.19;100.00;99423.81;6130768;23;20017;-96
2022/07/10 07:46:44;;;;;;;3.78;1.10;;;;;;;19.39;100.00;99419.63;6129817;23;20029;-95
2022/07/10 07:49:09;;;;;;;3.08;0.80;;;;;;;19.63;100.00;99427.63;6130657;23;20028;-95
2022/07/10 07:51:35;;;;;;;3.88;0.88;;;;;;;19.57;100.00;99418.97;6156466;23;20006;-96
2022/07/10 07:54:00;;;;;;;1.90;0.60;;;;;;;19.73;100.00;99413.97;6130934;23;20037;-96
2022/07/10 07:56:26;;;;;;;3.47;0.73;;;;;;;19.47;100.00;99416.69;6129688;23;20064;-95
2022/07/10 07:58:52;;;;;;;3.60;0.70;;;;;;;19.87;100.00;99420.59;6131742;23;20009;-94
2022/07/10 08:01:19;;;;;;;3.08;0.82;;;;;;;20.06;100.00;99426.94;6131361;23;20029;-95
2022/07/10 08:03:45;;;;;;;2.50;0.60;;;;;;;20.04;100.00;99431.44;6129617;23;20085;-96
2022/07/10 08:06:14;;;;;;;3.13;0.73;;;;;;;19.90;100.00;99420.47;6128948;23;20084;-95
2022/07/10 08:08:39;;;;;;;2.33;0.70;;;;;;;19.91;100.00;99423.06;6127344;23;20352;-95
2022/07/10 08:11:09;;;;;;;2.95;0.70;;;;;;;20.20;100.00;99429.06;6130319;23;20010;-96
2022/07/10 08:13:35;;;;;;;3.90;0.73;;;;;;;20.25;100.00;99426.22;6133290;23;20021;-96
2022/07/10 08:16:00;;;;;;;2.92;0.80;;;;;;;20.56;100.00;99425.94;6139409;23;20068;-96
2022/07/10 08:18:26;;;;;;;3.97;0.73;;;;;;;20.42;100.00;99418.50;6130264;23;20088;-96
2022/07/10 08:20:52;;;;;;;1.88;0.60;;;;;;;20.27;100.00;99411.16;6128373;23;20037;-95
2022/07/10 08:23:18;;;;;;;3.28;0.80;;;;;;;20.26;100.00;99423.56;6128216;23;20006;-96
2022/07/10 08:25:45;;;;;;;2.60;0.60;;;;;;;20.33;100.00;99418.88;6128887;23;20045;-96
2022/07/10 08:28:11;;;;;;;3.80;0.90;;;;;;;20.36;100.00;99418.78;6130541;23;20006;-95
2022/07/10 08:30:41;;;;;;;5.43;0.88;;;;;;;20.44;100.00;99421.94;6126959;23;20076;-94
2022/07/10 08:33:07;;;;;;;3.15;0.95;;;;;;;20.36;100.00;99415.22;6127238;23;20032;-96
2022/07/10 08:35:32;;;;;;;3.10;0.65;;;;;;;20.30;100.00;99416.34;6132204;23;20010;-96
2022/07/10 08:37:58;;;;;;;3.65;0.63;;;;;;;20.44;100.00;99410.50;6130619;23;20032;-96
2022/07/10 08:40:24;;;;;;;3.90;0.80;;;;;;;20.61;100.00;99407.19;6128832;23;20013;-96
2022/07/10 08:46:06;;;;;;;2.08;0.60;;;;;;;21.16;100.00;99408.56;6174984;23;20012;-96
2022/07/10 08:48:45;;;;;;;2.33;0.60;;;;;;;20.72;100.00;99407.63;6151878;23;20041;-96
2022/07/10 08:51:40;;;;;;;3.03;0.80;;;;;;;21.08;100.00;99412.34;6151122;23;20025;-96
2022/07/10 08:54:23;;;;;;;3.80;0.75;;;;;;;20.84;100.00;99403.66;6149604;23;20065;-96
2022/07/10 08:56:50;;;;;;;3.60;0.80;;;;;;;20.95;100.00;99416.47;6115753;23;20073;-93
2022/07/10 08:59:17;;;;;;;2.85;0.75;;;;;;;21.30;100.00;99407.00;6148290;23;20356;-93
2022/07/10 09:01:43;;;;;;;3.15;0.80;;;;;;;21.44;100.00;99410.88;6127281;23;20021;-96
2022/07/10 09:04:25;;;;;;;3.05;0.70;;;;;;;21.20;100.00;99412.78;6150103;23;20520;-96
2022/07/10 09:06:52;;;;;;;2.70;0.77;;;;;;;21.27;100.00;99401.00;6124362;23;20017;-96
2022/07/10 09:09:19;;;;;;;3.22;0.80;;;;;;;21.71;100.00;99406.19;6150104;23;20014;-96
2022/07/10 09:11:46;;;;;;;4.18;0.77;;;;;;;21.50;100.00;99402.63;6125339;23;20010;-96
2022/07/10 09:14:15;;;;;;;4.22;0.90;;;;;;;21.40;100.00;99406.63;6145045;23;20013;-93
2022/07/10 09:16:50;;;;;;;2.72;0.73;;;;;;;21.53;100.00;99401.66;6122244;23;20029;-96
2022/07/10 09:19:27;;;;;;;3.42;0.60;;;;;;;22.07;100.00;99405.41;6149068;23;20010;-95
2022/07/10 09:21:56;;;;;;;2.42;0.60;;;;;;;22.06;100.00;99389.56;6146801;23;20137;-94
2022/07/10 09:24:23;;;;;;;2.55;0.60;;;;;;;22.50;100.00;99387.50;6122127;23;20008;-94
2022/07/10 09:26:54;;;;;;;4.32;0.70;;;;;;;22.70;100.00;99398.97;6122634;23;20519;-94
2022/07/10 09:29:22;;;;;;;2.58;0.65;;;;;;;22.41;100.00;99385.28;6122573;23;20061;-94
2022/07/10 09:31:56;;;;;;;1.88;0.60;;;;;;;22.57;100.00;99379.22;6121946;23;20013;-96
2022/07/10 09:34:41;;;;;;;5.95;0.77;;;;;;;23.04;100.00;99381.34;6123108;23;20045;-94
2022/07/10 09:37:29;;;;;;;2.00;0.52;;;;;;;23.25;100.00;99389.19;6121500;23;20024;-93
2022/07/10 09:40:05;;;;;;;3.50;0.80;;;;;;;22.98;100.00;99379.00;6123994;23;20017;-95
2022/07/10 09:42:47;;;;;;;4.03;0.80;;;;;;;22.92;100.00;99374.84;6126127;23;20009;-94
2022/07/10 09:45:12;;;;;;;2.60;0.60;;;;;;;22.95;100.00;99376.47;6126663;23;20018;-93
2022/07/10 09:47:54;;;;;;;4.20;0.80;;;;;;;23.05;100.00;99385.72;6124802;23;20126;-94
2022/07/10 09:50:20;;;;;;;2.30;0.60;;;;;;;22.44;100.00;99387.78;6121694;23;20009;-91
2022/07/10 09:52:49;;;;;;;3.80;0.70;;;;;;;22.17;100.00;99389.91;6120357;23;20016;-94
2022/07/10 09:55:16;;;;;;;2.47;0.60;;;;;;;21.73;100.00;99385.72;6121288;23;20100;-93
2022/07/10 09:57:43;;;;;;;2.47;0.70;;;;;;;21.91;100.00;99388.50;6098966;23;20100;-94
2022/07/10 10:00:13;;;;;;;2.67;0.60;;;;;;;22.71;100.00;99374.09;6097816;23;20025;-94
2022/07/10 10:02:39;;;;;;;2.50;0.70;;;;;;;22.43;100.00;99382.56;6098860;23;20018;-94
2022/07/10 10:05:05;;;;;;;2.35;0.52;;;;;;;22.39;100.00;99370.34;6098080;23;20084;-94
2022/07/10 10:07:46;;;;;;;5.00;0.90;;;;;;;22.71;100.00;99366.13;6098768;23;20010;-94
2022/07/10 10:10:12;;;;;;;2.65;0.60;;;;;;;23.07;100.00;99364.34;6098119;23;20131;-93
2022/07/10 10:12:58;;;;;;;2.17;0.63;;;;;;;23.35;100.00;99362.03;6099034;23;20013;-93
2022/07/10 10:15:26;;;;;;;2.38;0.90;;;;;;;24.21;100.00;99377.03;6123836;23;20010;-93
2022/07/10 10:17:52;;;;;;;2.72;0.88;;;;;;;24.78;100.00;99364.97;6122121;23;20096;-93
2022/07/10 10:20:38;;;;;;;1.90;0.60;;;;;;;25.55;100.00;99360.41;6098043;23;20016;-94
2022/07/10 10:23:12;;;;;;;2.05;0.80;;;;;;;25.64;100.00;99359.00;6121943;23;20017;-93
2022/07/10 10:25:38;;;;;;;2.28;0.80;;;;;;;26.43;97.27;99354.91;6122264;23;20009;-93
2022/07/10 10:28:09;;;;;;;2.95;0.90;;;;;;;26.09;100.00;99367.78;6121979;23;20052;-93
2022/07/10 10:30:45;;;;;;;2.53;0.80;;;;;;;25.11;100.00;99353.25;6121796;23;20018;-96
2022/07/10 10:33:33;;;;;;;2.58;0.82;;;;;;;26.08;100.00;99360.69;6098004;23;20002;-93
2022/07/10 10:36:12;;;;;;;1.95;0.80;;;;;;;26.66;99.45;99341.84;6096387;23;20016;-94
2022/07/10 10:39:03;;;;;;;3.13;0.80;;;;;;;25.85;96.12;99357.66;6076668;23;20081;-93
2022/07/10 10:41:39;;;;;;;3.97;0.98;;;;;;;26.10;100.00;99342.78;6097974;23;20026;-94
2022/07/10 10:44:09;;;;;;;3.80;1.10;;;;;;;26.69;99.96;99347.84;6097489;23;20012;-93
2022/07/10 10:47:09;;;;;;;3.33;0.90;;;;;;;26.15;93.18;99334.44;6095433;23;20100;-93
2022/07/10 10:49:49;;;;;;;2.88;0.93;;;;;;;26.25;92.16;99340.94;6098757;23;20577;-93
2022/07/10 10:52:16;;;;;;;3.17;0.80;;;;;;;26.49;94.42;99333.09;6094836;23;20049;-93
2022/07/10 10:54:57;;;;;;;2.33;0.77;;;;;;;26.62;94.31;99341.16;6121021;23;20006;-94
2022/07/10 10:57:32;;;;;;;3.33;1.02;;;;;;;26.24;92.39;99333.84;6115849;23;20084;-93
2022/07/10 10:59:59;;;;;;;3.05;0.90;;;;;;;26.62;91.79;99332.31;6121296;23;20013;-95
2022/07/10 11:02:33;;;;;;;2.90;0.82;;;;;;;26.46;90.96;99329.75;6148687;23;20018;-96
2022/07/10 11:05:19;;;;;;;2.63;0.85;;;;;;;26.94;92.48;99330.16;6148592;23;20353;-95
2022/07/10 11:07:55;;;;;;;3.35;1.00;;;;;;;27.57;98.22;99330.34;6106397;23;20449;-95
2022/07/10 11:10:35;;;;;;;4.22;1.00;;;;;;;27.29;89.00;99331.38;6121776;23;20021;-95
2022/07/10 11:13:05;;;;;;;3.85;0.90;;;;;;;26.90;93.87;99326.84;6124591;23;20008;-94
2022/07/10 11:15:33;;;;;;;4.40;1.00;;;;;;;27.60;89.62;99319.41;6121918;23;20444;-95
2022/07/10 11:18:03;;;;;;;3.15;0.88;;;;;;;27.31;85.34;99316.94;6121387;23;20009;-96
2022/07/10 11:20:32;;;;;;;2.67;0.75;;;;;;;27.56;96.28;99313.41;6122623;23;20061;-94
2022/07/10 11:23:03;;;;;;;1.92;0.75;;;;;;;28.09;88.88;99317.75;6122447;23;20137;-95
2022/07/10 11:26:00;;;;;;;3.30;0.90;;;;;;;27.68;81.08;99324.22;6121749;23;20006;-93
2022/07/10 11:28:45;;;;;;;3.90;1.25;;;;;;;27.01;89.67;99315.38;6120216;23;20093;-93
2022/07/10 11:31:11;;;;;;;4.90;1.10;;;;;;;28.21;84.92;99318.66;6122838;23;20014;-95
2022/07/10 11:33:46;;;;;;;3.22;0.98;;;;;;;28.14;83.17;99309.34;6122271;23;20159;-94
2022/07/10 11:36:25;;;;;;;5.47;1.27;;;;;;;26.54;93.72;99316.75;6121749;23;20042;-96
2022/07/10 11:39:14;;;;;;;3.75;1.00;;;;;;;27.50;94.05;99315.66;6122231;23;20421;-95
2022/07/10 11:41:47;;;;;;;3.70;0.90;;;;;;;27.18;91.44;99306.22;6120843;23;20018;-93
2022/07/10 11:44:16;;;;;;;3.05;0.80;;;;;;;26.86;97.62;99300.38;6122592;23;20017;-93
2022/07/10 11:46:44;;;;;;;3.38;1.00;;;;;;;26.13;99.26;99312.31;6144128;23;20378;-93
2022/07/10 11:49:10;;;;;;;4.35;0.98;;;;;;;26.92;96.93;99316.03;6145281;23;20750;-94
2022/07/10 11:51:39;;;;;;;3.63;0.90;;;;;;;26.97;97.84;99315.72;6144618;23;20501;-94
2022/07/10 11:54:13;;;;;;;3.78;0.80;;;;;;;25.99;96.86;99311.34;6121569;23;20009;-95
2022/07/10 11:56:46;;;;;;;3.00;1.00;;;;;;;25.83;97.70;99321.28;6120140;23;20024;-93
2022/07/10 11:59:16;;;;;;;3.05;0.90;;;;;;;27.49;93.65;99308.59;6144212;23;20017;-91
2022/07/10 12:01:50;;;;;;;2.83;0.90;;;;;;;27.28;96.15;99310.91;6146270;23;20009;-93
2022/07/10 12:04:23;;;;;;;3.08;0.90;;;;;;;26.35;100.00;99303.75;6122736;23;20436;-93
2022/07/10 12:06:49;;;;;;;3.78;0.90;;;;;;;25.70;100.00;99310.53;6148458;23;20081;-93
2022/07/10 12:09:17;;;;;;;3.33;0.95;;;;;;;25.95;100.00;99300.97;6148528;23;20002;-94
2022/07/10 12:11:58;;;;;;;5.03;1.10;;;;;;;26.84;100.00;99302.31;6124681;23;20002;-94
2022/07/10 12:14:25;;;;;;;3.38;0.98;;;;;;;27.12;89.52;99303.94;6150551;23;20049;-96
2022/07/10 12:17:12;;;;;;;3.25;1.00;;;;;;;27.18;89.92;99295.50;6148888;23;20599;-93
2022/07/10 12:19:40;;;;;;;3.08;0.90;;;;;;;27.40;90.69;99302.06;6123398;23;20067;-94
2022/07/10 12:22:07;;;;;;;4.50;0.98;;;;;;;27.30;89.75;99300.97;6125536;23;20021;-93